aviador You're here:

GMMN Decoded Metar

CASABLANCA in MOROCCO
Report Time2017-09-24 12:00:00
UTC Time2017-09-24 12:19:04
Flight Rules vfr VFR
Wind020° at 03 kt
W.Decomp.*RWY 35: 2.5 kt HW 1.6 kt RCW
W.Rank020° ranks 1
Current wind is below 020° avg. (8.5)
Visibility9999 m
Phenomena:N/A
Clouds:N/A
Expected CloudBase > 3,200 ft AGL from Temp-Dew spread
CeilingNone
Temp28°C (ISA +14)
Dew Point20°C (62% RH)
Heat Index29.7°C
QNH1020 hPa
Density Alt2,402 ft
Elevation676 ft
Report Wrong Elevation
Raw Report
GMMN 241200Z 02003KT 300V070 CAVOK 28/20 Q1020 NOSIG=

Extra information for GMMN:More info

Metar Taf Metar & Taf Last 4 Metars F.Rules Stats Wind Profile Meteogram Temp Stats Airport Information Weather charts Add Link Nearby VenuesMetar ALERT Operation Metar Decoded Social comments